sensor_id;sensor_type;location;lat;lon;timestamp;pressure;altitude;pressure_sealevel;temperature;humidity
68859;BME280;55864;49.238;8.092;2024-01-15T00:00:50;98386.63;;;-2.90;85.87
68859;BME280;55864;49.238;8.092;2024-01-15T00:02:50;98374.03;;;-2.94;86.36
68859;BME280;55864;49.238;8.092;2024-01-15T00:04:51;98362.47;;;-2.87;85.69
68859;BME280;55864;49.238;8.092;2024-01-15T00:06:51;98372.59;;;-2.84;85.98
68859;BME280;55864;49.238;8.092;2024-01-15T00:08:52;98371.03;;;-2.87;85.83
68859;BME280;55864;49.238;8.092;2024-01-15T00:10:52;98374.78;;;-2.78;85.55
68859;BME280;55864;49.238;8.092;2024-01-15T00:12:54;98372.66;;;-2.86;85.01
68859;BME280;55864;49.238;8.092;2024-01-15T00:14:55;98374.00;;;-2.78;85.79
68859;BME280;55864;49.238;8.092;2024-01-15T00:16:55;98372.44;;;-2.97;86.08
68859;BME280;55864;49.238;8.092;2024-01-15T00:18:56;98372.41;;;-2.81;86.24
68859;BME280;55864;49.238;8.092;2024-01-15T00:20:56;98369.31;;;-2.72;85.35
68859;BME280;55864;49.238;8.092;2024-01-15T00:22:57;98368.56;;;-2.74;85.37
68859;BME280;55864;49.238;8.092;2024-01-15T00:24:58;98368.19;;;-2.82;85.59
68859;BME280;55864;49.238;8.092;2024-01-15T00:26:59;98359.81;;;-2.86;85.70
68859;BME280;55864;49.238;8.092;2024-01-15T00:29:00;98361.38;;;-2.83;85.77
68859;BME280;55864;49.238;8.092;2024-01-15T00:31:01;98360.97;;;-2.75;85.81
68859;BME280;55864;49.238;8.092;2024-01-15T00:33:02;98354.63;;;-2.84;86.30
68859;BME280;55864;49.238;8.092;2024-01-15T00:35:03;98358.94;;;-2.70;85.65
68859;BME280;55864;49.238;8.092;2024-01-15T00:37:03;98354.00;;;-2.73;85.70
68859;BME280;55864;49.238;8.092;2024-01-15T00:39:04;98346.03;;;-2.69;85.29
68859;BME280;55864;49.238;8.092;2024-01-15T00:41:05;98363.44;;;-2.74;85.14
68859;BME280;55864;49.238;8.092;2024-01-15T00:43:05;98357.50;;;-2.74;85.30
68859;BME280;55864;49.238;8.092;2024-01-15T00:45:08;98346.03;;;-2.69;85.29
68859;BME280;55864;49.238;8.092;2024-01-15T00:47:08;98339.53;;;-2.60;84.75
68859;BME280;55864;49.238;8.092;2024-01-15T00:49:09;98335.47;;;-2.64;85.09
68859;BME280;55864;49.238;8.092;2024-01-15T00:51:10;98347.66;;;-2.68;84.94
68859;BME280;55864;49.238;8.092;2024-01-15T00:53:10;98344.66;;;-2.60;85.12
68859;BME280;55864;49.238;8.092;2024-01-15T00:55:11;98349.81;;;-2.60;84.77
68859;BME280;55864;49.238;8.092;2024-01-15T00:57:11;98348.06;;;-2.60;84.82
68859;BME280;55864;49.238;8.092;2024-01-15T00:59:12;98353.13;;;-2.58;85.06
68859;BME280;55864;49.238;8.092;2024-01-15T01:01:14;98357.63;;;-2.48;84.74
68859;BME280;55864;49.238;8.092;2024-01-15T01:03:15;98361.38;;;-2.53;85.13
68859;BME280;55864;49.238;8.092;2024-01-15T01:05:16;98354.94;;;-2.60;85.02
68859;BME280;55864;49.238;8.092;2024-01-15T01:07:16;98356.72;;;-2.47;84.68
68859;BME280;55864;49.238;8.092;2024-01-15T01:09:17;98361.31;;;-2.52;84.84
68859;BME280;55864;49.238;8.092;2024-01-15T01:11:17;98356.78;;;-2.62;85.40
68859;BME280;55864;49.238;8.092;2024-01-15T01:13:18;98364.97;;;-2.56;85.43
68859;BME280;55864;49.238;8.092;2024-01-15T01:15:19;98372.03;;;-2.45;84.98
68859;BME280;55864;49.238;8.092;2024-01-15T01:17:20;98362.41;;;-2.42;85.17
68859;BME280;55864;49.238;8.092;2024-01-15T01:19:21;98365.75;;;-2.69;85.02
68859;BME280;55864;49.238;8.092;2024-01-15T01:21:22;98367.25;;;-2.51;85.33
68859;BME280;55864;49.238;8.092;2024-01-15T01:23:22;98371.41;;;-2.49;85.56
68859;BME280;55864;49.238;8.092;2024-01-15T01:25:23;98381.97;;;-2.39;85.23
68859;BME280;55864;49.238;8.092;2024-01-15T01:27:23;98375.09;;;-2.39;85.11
68859;BME280;55864;49.238;8.092;2024-01-15T01:29:24;98374.53;;;-2.44;85.29
68859;BME280;55864;49.238;8.092;2024-01-15T01:31:25;98370.97;;;-2.41;85.23
68859;BME280;55864;49.238;8.092;2024-01-15T01:33:27;98372.44;;;-2.37;85.20
68859;BME280;55864;49.238;8.092;2024-01-15T01:35:27;98384.00;;;-2.44;85.54
68859;BME280;55864;49.238;8.092;2024-01-15T01:37:28;98380.75;;;-2.48;85.10
68859;BME280;55864;49.238;8.092;2024-01-15T01:39:28;98382.69;;;-2.51;85.33
68859;BME280;55864;49.238;8.092;2024-01-15T01:41:29;98393.25;;;-2.42;85.17
68859;BME280;55864;49.238;8.092;2024-01-15T01:43:29;98387.56;;;-2.47;84.81
68859;BME280;55864;49.238;8.092;2024-01-15T01:45:30;98389.06;;;-2.43;85.73
68859;BME280;55864;49.238;8.092;2024-01-15T01:47:31;98382.19;;;-2.42;84.88
68859;BME280;55864;49.238;8.092;2024-01-15T01:49:34;98388.84;;;-2.40;85.57
68859;BME280;55864;49.238;8.092;2024-01-15T01:51:35;98398.41;;;-2.42;85.41
68859;BME280;55864;49.238;8.092;2024-01-15T01:53:36;98392.53;;;-2.44;85.92
68859;BME280;55864;49.238;8.092;2024-01-15T01:55:38;98407.19;;;-2.46;86.28
68859;BME280;55864;49.238;8.092;2024-01-15T01:57:40;98393.75;;;-2.35;85.92
68859;BME280;55864;49.238;8.092;2024-01-15T01:59:41;98400.91;;;-2.26;85.77
68859;BME280;55864;49.238;8.092;2024-01-15T02:03:43;98410.34;;;-2.41;85.85
68859;BME280;55864;49.238;8.092;2024-01-15T02:05:48;98405.66;;;-2.34;85.69
68859;BME280;55864;49.238;8.092;2024-01-15T02:07:49;98403.97;;;-2.20;85.47
68859;BME280;55864;49.238;8.092;2024-01-15T02:09:49;98397.06;;;-2.19;85.66
68859;BME280;55864;49.238;8.092;2024-01-15T02:11:50;98400.47;;;-2.19;85.67
68859;BME280;55864;49.238;8.092;2024-01-15T02:13:51;98392.16;;;-2.52;85.91
68859;BME280;55864;49.238;8.092;2024-01-15T02:15:52;98385.50;;;-2.26;86.09
68859;BME280;55864;49.238;8.092;2024-01-15T02:17:59;98385.69;;;-2.29;85.96
68859;BME280;55864;49.238;8.092;2024-01-15T02:20:00;98380.69;;;-2.32;86.01
68859;BME280;55864;49.238;8.092;2024-01-15T02:22:02;98390.63;;;-2.26;86.23
68859;BME280;55864;49.238;8.092;2024-01-15T02:24:04;98378.88;;;-2.30;86.55
68859;BME280;55864;49.238;8.092;2024-01-15T02:26:05;98386.78;;;-2.33;86.70
68859;BME280;55864;49.238;8.092;2024-01-15T02:28:08;98386.50;;;-2.29;86.50
68859;BME280;55864;49.238;8.092;2024-01-15T02:30:11;98394.50;;;-2.19;85.92
68859;BME280;55864;49.238;8.092;2024-01-15T02:32:12;98391.28;;;-2.37;86.96
68859;BME280;55864;49.238;8.092;2024-01-15T02:34:12;98387.88;;;-2.23;86.42
68859;BME280;55864;49.238;8.092;2024-01-15T02:36:13;98388.44;;;-2.18;86.55
68859;BME280;55864;49.238;8.092;2024-01-15T02:38:13;98395.06;;;-2.14;86.17
68859;BME280;55864;49.238;8.092;2024-01-15T02:40:15;98396.16;;;-2.04;85.63
68859;BME280;55864;49.238;8.092;2024-01-15T02:42:16;98390.28;;;-2.20;86.63
68859;BME280;55864;49.238;8.092;2024-01-15T02:44:16;98393.59;;;-2.18;86.50
68859;BME280;55864;49.238;8.092;2024-01-15T02:46:17;98385.31;;;-2.23;86.27
68859;BME280;55864;49.238;8.092;2024-01-15T02:48:17;98394.97;;;-2.13;85.89
68859;BME280;55864;49.238;8.092;2024-01-15T02:50:18;98391.75;;;-2.16;86.29
68859;BME280;55864;49.238;8.092;2024-01-15T02:52:19;98395.81;;;-2.12;86.07
68859;BME280;55864;49.238;8.092;2024-01-15T02:54:19;98398.38;;;-2.12;86.49
68859;BME280;55864;49.238;8.092;2024-01-15T02:56:21;98402.59;;;-2.11;85.78
68859;BME280;55864;49.238;8.092;2024-01-15T02:58:22;98400.75;;;-2.09;86.19
68859;BME280;55864;49.238;8.092;2024-01-15T03:00:22;98399.66;;;-2.05;86.63
68859;BME280;55864;49.238;8.092;2024-01-15T03:02:23;98398.28;;;-2.11;86.24
68859;BME280;55864;49.238;8.092;2024-01-15T03:04:24;98403.94;;;-2.34;87.00
68859;BME280;55864;49.238;8.092;2024-01-15T03:06:24;98396.81;;;-2.15;86.98
68859;BME280;55864;49.238;8.092;2024-01-15T03:08:25;98395.69;;;-2.25;87.79
68859;BME280;55864;49.238;8.092;2024-01-15T03:10:25;98397.44;;;-2.11;86.78
68859;BME280;55864;49.238;8.092;2024-01-15T03:12:28;98402.84;;;-2.16;86.48
68859;BME280;55864;49.238;8.092;2024-01-15T03:14:28;98403.03;;;-2.19;87.19
68859;BME280;55864;49.238;8.092;2024-01-15T03:16:29;98406.00;;;-1.97;87.03
68859;BME280;55864;49.238;8.092;2024-01-15T03:18:29;98399.66;;;-1.91;86.49
68859;BME280;55864;49.238;8.092;2024-01-15T03:20:30;98398.13;;;-1.94;86.88
68859;BME280;55864;49.238;8.092;2024-01-15T03:22:31;98407.56;;;-1.94;87.49
68859;BME280;55864;49.238;8.092;2024-01-15T03:24:32;98401.69;;;-1.96;87.35
68859;BME280;55864;49.238;8.092;2024-01-15T03:26:32;98396.66;;;-1.98;87.67
68859;BME280;55864;49.238;8.092;2024-01-15T03:28:34;98405.81;;;-2.08;88.48
68859;BME280;55864;49.238;8.092;2024-01-15T03:30:35;98395.44;;;-1.92;88.33
68859;BME280;55864;49.238;8.092;2024-01-15T03:32:35;98393.25;;;-2.12;88.59
68859;BME280;55864;49.238;8.092;2024-01-15T03:34:36;98388.28;;;-2.01;88.93
68859;BME280;55864;49.238;8.092;2024-01-15T03:36:36;98390.56;;;-1.97;88.75
68859;BME280;55864;49.238;8.092;2024-01-15T03:38:39;98384.97;;;-2.03;89.41
68859;BME280;55864;49.238;8.092;2024-01-15T03:40:40;98393.78;;;-2.07;89.62
68859;BME280;55864;49.238;8.092;2024-01-15T03:42:40;98384.91;;;-1.87;88.89
68859;BME280;55864;49.238;8.092;2024-01-15T03:44:42;98374.50;;;-1.86;88.62
68859;BME280;55864;49.238;8.092;2024-01-15T03:46:43;98376.50;;;-1.91;88.94
68859;BME280;55864;49.238;8.092;2024-01-15T03:48:43;98367.41;;;-1.82;88.38
68859;BME280;55864;49.238;8.092;2024-01-15T03:50:44;98359.78;;;-1.98;88.70
68859;BME280;55864;49.238;8.092;2024-01-15T03:52:44;98349.41;;;-1.97;88.75
68859;BME280;55864;49.238;8.092;2024-01-15T03:54:45;98347.59;;;-2.09;88.83
68859;BME280;55864;49.238;8.092;2024-01-15T03:56:45;98341.34;;;-2.05;89.66
68859;BME280;55864;49.238;8.092;2024-01-15T03:58:46;98340.31;;;-2.02;89.46
68859;BME280;55864;49.238;8.092;2024-01-15T04:00:48;98332.59;;;-2.02;89.23
68859;BME280;55864;49.238;8.092;2024-01-15T04:02:48;98325.19;;;-2.07;89.13
68859;BME280;55864;49.238;8.092;2024-01-15T04:04:49;98318.44;;;-2.23;90.05
68859;BME280;55864;49.238;8.092;2024-01-15T04:06:50;98314.88;;;-2.07;90.07
68859;BME280;55864;49.238;8.092;2024-01-15T04:08:50;98317.53;;;-1.94;89.17
68859;BME280;55864;49.238;8.092;2024-01-15T04:10:51;98307.50;;;-1.99;89.23
68859;BME280;55864;49.238;8.092;2024-01-15T04:12:52;98311.47;;;-2.07;89.38
68859;BME280;55864;49.238;8.092;2024-01-15T04:14:53;98303.41;;;-2.01;90.15
68859;BME280;55864;49.238;8.092;2024-01-15T04:16:55;98284.47;;;-2.00;89.85
68859;BME280;55864;49.238;8.092;2024-01-15T04:18:55;98282.53;;;-1.97;90.73
68859;BME280;55864;49.238;8.092;2024-01-15T04:20:56;98302.28;;;-1.97;90.97
68859;BME280;55864;49.238;8.092;2024-01-15T04:22:56;98311.38;;;-2.06;92.16
68859;BME280;55864;49.238;8.092;2024-01-15T04:24:57;98308.66;;;-2.03;92.11
68859;BME280;55864;49.238;8.092;2024-01-15T04:26:57;98294.94;;;-2.03;93.01
68859;BME280;55864;49.238;8.092;2024-01-15T04:28:58;98295.69;;;-2.01;93.32
68859;BME280;55864;49.238;8.092;2024-01-15T04:30:58;98293.00;;;-2.00;93.74
68859;BME280;55864;49.238;8.092;2024-01-15T04:33:00;98299.78;;;-1.99;93.69
68859;BME280;55864;49.238;8.092;2024-01-15T04:35:01;98296.22;;;-1.96;93.74
68859;BME280;55864;49.238;8.092;2024-01-15T04:37:02;98286.47;;;-1.91;93.75
68859;BME280;55864;49.238;8.092;2024-01-15T04:39:02;98287.75;;;-1.98;93.56
68859;BME280;55864;49.238;8.092;2024-01-15T04:41:03;98284.56;;;-2.02;93.43
68859;BME280;55864;49.238;8.092;2024-01-15T04:43:04;98285.50;;;-2.03;93.09
68859;BME280;55864;49.238;8.092;2024-01-15T04:45:05;98274.28;;;-2.02;92.33
68859;BME280;55864;49.238;8.092;2024-01-15T04:47:05;98272.78;;;-1.92;92.64
68859;BME280;55864;49.238;8.092;2024-01-15T04:49:07;98286.84;;;-1.97;92.74
68859;BME280;55864;49.238;8.092;2024-01-15T04:51:08;98282.91;;;-2.03;92.37
68859;BME280;55864;49.238;8.092;2024-01-15T04:53:09;98290.25;;;-1.97;92.57
68859;BME280;55864;49.238;8.092;2024-01-15T04:55:10;98286.47;;;-1.91;92.09
68859;BME280;55864;49.238;8.092;2024-01-15T04:57:10;98286.28;;;-2.02;92.14
68859;BME280;55864;49.238;8.092;2024-01-15T04:59:11;98289.44;;;-1.97;92.16
68859;BME280;55864;49.238;8.092;2024-01-15T05:01:11;98294.91;;;-1.89;92.02
68859;BME280;55864;49.238;8.092;2024-01-15T05:03:12;98276.84;;;-2.02;92.33
68859;BME280;55864;49.238;8.092;2024-01-15T05:05:14;98282.44;;;-1.95;92.14
68859;BME280;55864;49.238;8.092;2024-01-15T05:07:14;98276.63;;;-1.99;92.18
68859;BME280;55864;49.238;8.092;2024-01-15T05:09:15;98276.44;;;-1.81;91.58
68859;BME280;55864;49.238;8.092;2024-01-15T05:11:15;98276.25;;;-1.78;91.60
68859;BME280;55864;49.238;8.092;2024-01-15T05:13:16;98284.34;;;-1.84;91.56
68859;BME280;55864;49.238;8.092;2024-01-15T05:15:16;98268.72;;;-1.81;91.56
68859;BME280;55864;49.238;8.092;2024-01-15T05:17:17;98275.06;;;-1.87;91.82
68859;BME280;55864;49.238;8.092;2024-01-15T05:19:18;98258.53;;;-1.83;92.25
68859;BME280;55864;49.238;8.092;2024-01-15T05:21:20;98264.13;;;-1.76;91.74
68859;BME280;55864;49.238;8.092;2024-01-15T05:23:20;98261.09;;;-1.83;92.12
68859;BME280;55864;49.238;8.092;2024-01-15T05:25:21;98262.66;;;-1.80;92.32
68859;BME280;55864;49.238;8.092;2024-01-15T05:27:21;98270.47;;;-1.82;92.37
68859;BME280;55864;49.238;8.092;2024-01-15T05:29:22;98263.75;;;-1.84;92.42
68859;BME280;55864;49.238;8.092;2024-01-15T05:31:22;98254.94;;;-1.80;92.33
68859;BME280;55864;49.238;8.092;2024-01-15T05:33:23;98261.09;;;-1.83;92.61
68859;BME280;55864;49.238;8.092;2024-01-15T05:35:23;98268.97;;;-1.72;92.53
68859;BME280;55864;49.238;8.092;2024-01-15T05:37:25;98261.94;;;-1.82;92.44
68859;BME280;55864;49.238;8.092;2024-01-15T05:39:26;98266.50;;;-1.73;91.80
68859;BME280;55864;49.238;8.092;2024-01-15T05:41:26;98260.88;;;-1.66;91.87
68859;BME280;55864;49.238;8.092;2024-01-15T05:43:27;98259.75;;;-1.62;91.79
68859;BME280;55864;49.238;8.092;2024-01-15T05:45:28;98263.00;;;-1.72;92.08
68859;BME280;55864;49.238;8.092;2024-01-15T05:47:29;98265.16;;;-1.52;91.81
68859;BME280;55864;49.238;8.092;2024-01-15T05:49:30;98270.31;;;-1.66;91.55
68859;BME280;55864;49.238;8.092;2024-01-15T05:51:30;98279.09;;;-1.69;91.88
68859;BME280;55864;49.238;8.092;2024-01-15T05:53:32;98281.81;;;-1.58;91.67
68859;BME280;55864;49.238;8.092;2024-01-15T05:55:33;98272.25;;;-1.56;91.61
68859;BME280;55864;49.238;8.092;2024-01-15T05:57:33;98268.94;;;-1.58;91.85
68859;BME280;55864;49.238;8.092;2024-01-15T05:59:34;98277.88;;;-1.63;91.63
68859;BME280;55864;49.238;8.092;2024-01-15T06:01:34;98277.91;;;-1.51;90.90
68859;BME280;55864;49.238;8.092;2024-01-15T06:03:35;98276.13;;;-1.36;90.65
68859;BME280;55864;49.238;8.092;2024-01-15T06:05:35;98272.63;;;-1.35;90.57
68859;BME280;55864;49.238;8.092;2024-01-15T06:07:36;98270.34;;;-1.40;90.66
68859;BME280;55864;49.238;8.092;2024-01-15T06:09:38;98266.25;;;-1.56;91.03
68859;BME280;55864;49.238;8.092;2024-01-15T06:11:38;98268.06;;;-1.44;91.43
68859;BME280;55864;49.238;8.092;2024-01-15T06:13:39;98267.03;;;-1.42;91.26
68859;BME280;55864;49.238;8.092;2024-01-15T06:15:40;98283.44;;;-1.57;92.11
68859;BME280;55864;49.238;8.092;2024-01-15T06:17:40;98284.53;;;-1.47;91.50
68859;BME280;55864;49.238;8.092;2024-01-15T06:19:41;98289.88;;;-1.50;91.89
68859;BME280;55864;49.238;8.092;2024-01-15T06:21:41;98279.19;;;-1.44;91.06
68859;BME280;55864;49.238;8.092;2024-01-15T06:23:42;98278.06;;;-1.40;90.97
68859;BME280;55864;49.238;8.092;2024-01-15T06:25:44;98278.41;;;-1.32;90.46
68859;BME280;55864;49.238;8.092;2024-01-15T06:27:44;98271.78;;;-1.36;91.18
68859;BME280;55864;49.238;8.092;2024-01-15T06:29:45;98270.19;;;-1.51;91.15
68859;BME280;55864;49.238;8.092;2024-01-15T06:31:46;98277.19;;;-1.53;91.44
68859;BME280;55864;49.238;8.092;2024-01-15T06:33:47;98268.81;;;-1.42;91.06
68859;BME280;55864;49.238;8.092;2024-01-15T06:35:47;98277.50;;;-1.31;91.27
68859;BME280;55864;49.238;8.092;2024-01-15T06:37:48;98273.25;;;-1.32;90.92
68859;BME280;55864;49.238;8.092;2024-01-15T06:39:48;98275.25;;;-1.23;91.16
68859;BME280;55864;49.238;8.092;2024-01-15T06:41:50;98275.56;;;-1.27;90.77
68859;BME280;55864;49.238;8.092;2024-01-15T06:43:51;98272.84;;;-1.38;91.43
68859;BME280;55864;49.238;8.092;2024-01-15T06:45:51;98274.72;;;-1.28;91.63
68859;BME280;55864;49.238;8.092;2024-01-15T06:47:52;98266.75;;;-1.37;91.46
68859;BME280;55864;49.238;8.092;2024-01-15T06:49:52;98278.41;;;-1.32;91.99
68859;BME280;55864;49.238;8.092;2024-01-15T06:51:53;98265.78;;;-1.22;91.56
68859;BME280;55864;49.238;8.092;2024-01-15T06:53:53;98266.22;;;-1.16;91.40
68859;BME280;55864;49.238;8.092;2024-01-15T06:55:54;98267.22;;;-1.18;91.19
68859;BME280;55864;49.238;8.092;2024-01-15T06:57:56;98261.72;;;-1.26;91.01
68859;BME280;55864;49.238;8.092;2024-01-15T06:59:56;98261.34;;;-1.20;90.92
68859;BME280;55864;49.238;8.092;2024-01-15T07:01:57;98283.81;;;-1.22;90.48
68859;BME280;55864;49.238;8.092;2024-01-15T07:03:57;98263.94;;;-1.08;90.29
68859;BME280;55864;49.238;8.092;2024-01-15T07:05:58;98265.06;;;-1.12;90.48
68859;BME280;55864;49.238;8.092;2024-01-15T07:07:58;98259.00;;;-1.11;90.63
68859;BME280;55864;49.238;8.092;2024-01-15T07:09:59;98268.47;;;-1.11;90.21
68859;BME280;55864;49.238;8.092;2024-01-15T07:11:59;98269.09;;;-1.08;90.11
68859;BME280;55864;49.238;8.092;2024-01-15T07:14:01;98248.38;;;-1.19;90.54
68859;BME280;55864;49.238;8.092;2024-01-15T07:16:02;98253.75;;;-1.09;90.69
68859;BME280;55864;49.238;8.092;2024-01-15T07:18:03;98259.41;;;-1.04;90.26
68859;BME280;55864;49.238;8.092;2024-01-15T07:20:06;98264.06;;;-1.09;90.84
68859;BME280;55864;49.238;8.092;2024-01-15T07:22:07;98261.72;;;-1.26;90.88
68859;BME280;55864;49.238;8.092;2024-01-15T07:24:07;98257.16;;;-1.09;91.05
68859;BME280;55864;49.238;8.092;2024-01-15T07:26:08;98258.91;;;-1.09;90.48
68859;BME280;55864;49.238;8.092;2024-01-15T07:28:08;98259.84;;;-1.10;91.33
68859;BME280;55864;49.238;8.092;2024-01-15T07:30:11;98250.53;;;-1.13;91.54
68859;BME280;55864;49.238;8.092;2024-01-15T07:32:12;98253.97;;;-1.00;90.92
68859;BME280;55864;49.238;8.092;2024-01-15T07:34:12;98260.56;;;-0.96;90.73
68859;BME280;55864;49.238;8.092;2024-01-15T07:36:13;98252.56;;;-0.91;90.18
68859;BME280;55864;49.238;8.092;2024-01-15T07:38:13;98255.31;;;-0.94;90.44
68859;BME280;55864;49.238;8.092;2024-01-15T07:40:14;98249.31;;;-0.95;91.17
68859;BME280;55864;49.238;8.092;2024-01-15T07:42:15;98247.59;;;-0.94;90.85
68859;BME280;55864;49.238;8.092;2024-01-15T07:44:15;98264.72;;;-0.80;90.94
68859;BME280;55864;49.238;8.092;2024-01-15T07:46:17;98266.47;;;-0.93;90.47
68859;BME280;55864;49.238;8.092;2024-01-15T07:48:18;98263.59;;;-0.89;90.51
68859;BME280;55864;49.238;8.092;2024-01-15T07:50:18;98255.53;;;-0.97;90.89
68859;BME280;55864;49.238;8.092;2024-01-15T07:52:19;98257.50;;;-0.88;90.76
68859;BME280;55864;49.238;8.092;2024-01-15T07:54:19;98258.50;;;-0.90;91.37
68859;BME280;55864;49.238;8.092;2024-01-15T07:56:20;98253.78;;;-0.84;90.68
68859;BME280;55864;49.238;8.092;2024-01-15T07:58:21;98253.19;;;-0.87;91.06
68859;BME280;55864;49.238;8.092;2024-01-15T08:00:21;98256.06;;;-0.79;90.64
68859;BME280;55864;49.238;8.092;2024-01-15T08:02:23;98252.97;;;-0.84;91.35
68859;BME280;55864;49.238;8.092;2024-01-15T08:04:24;98250.28;;;-0.83;91.77
68859;BME280;55864;49.238;8.092;2024-01-15T08:06:24;98246.78;;;-0.69;91.05
68859;BME280;55864;49.238;8.092;2024-01-15T08:08:25;98250.72;;;-0.76;91.43
68859;BME280;55864;49.238;8.092;2024-01-15T08:10:26;98258.13;;;-0.84;91.69
68859;BME280;55864;49.238;8.092;2024-01-15T08:12:26;98252.06;;;-0.83;91.76
68859;BME280;55864;49.238;8.092;2024-01-15T08:14:27;98254.75;;;-0.72;91.13
68859;BME280;55864;49.238;8.092;2024-01-15T08:16:27;98248.97;;;-0.76;91.41
68859;BME280;55864;49.238;8.092;2024-01-15T08:18:29;98251.53;;;-0.76;91.74
68859;BME280;55864;49.238;8.092;2024-01-15T08:20:30;98251.53;;;-0.76;91.89
68859;BME280;55864;49.238;8.092;2024-01-15T08:22:30;98238.75;;;-0.65;91.10
68859;BME280;55864;49.238;8.092;2024-01-15T08:24:31;98253.00;;;-0.59;91.03
68859;BME280;55864;49.238;8.092;2024-01-15T08:26:31;98238.94;;;-0.68;91.41
68859;BME280;55864;49.238;8.092;2024-01-15T08:28:32;98245.66;;;-0.65;91.94
68859;BME280;55864;49.238;8.092;2024-01-15T08:30:33;98253.59;;;-0.56;91.42
68859;BME280;55864;49.238;8.092;2024-01-15T08:32:33;98260.09;;;-0.63;91.70
68859;BME280;55864;49.238;8.092;2024-01-15T08:34:35;98258.34;;;-0.62;91.42
68859;BME280;55864;49.238;8.092;2024-01-15T08:36:36;98255.97;;;-0.65;92.16
68859;BME280;55864;49.238;8.092;2024-01-15T08:38:36;98256.69;;;-0.63;92.73
68859;BME280;55864;49.238;8.092;2024-01-15T08:40:37;98262.47;;;-0.60;93.30
68859;BME280;55864;49.238;8.092;2024-01-15T08:42:37;98264.75;;;-0.55;93.08
68859;BME280;55864;49.238;8.092;2024-01-15T08:44:38;98260.31;;;-0.53;92.54
68859;BME280;55864;49.238;8.092;2024-01-15T08:46:38;98260.50;;;-0.56;93.26
68859;BME280;55864;49.238;8.092;2024-01-15T08:48:39;98262.56;;;-0.61;93.96
68859;BME280;55864;49.238;8.092;2024-01-15T08:50:41;98269.91;;;-0.55;94.33
68859;BME280;55864;49.238;8.092;2024-01-15T08:52:41;98264.75;;;-0.55;95.07
68859;BME280;55864;49.238;8.092;2024-01-15T08:54:42;98264.53;;;-0.52;96.15
68859;BME280;55864;49.238;8.092;2024-01-15T08:56:42;98272.16;;;-0.51;95.81
68859;BME280;55864;49.238;8.092;2024-01-15T08:58:43;98272.28;;;-0.52;96.36
68859;BME280;55864;49.238;8.092;2024-01-15T09:00:43;98271.25;;;-0.50;95.79
68859;BME280;55864;49.238;8.092;2024-01-15T09:02:44;98269.69;;;-0.52;96.32
68859;BME280;55864;49.238;8.092;2024-01-15T09:04:45;98269.19;;;-0.57;96.59
68859;BME280;55864;49.238;8.092;2024-01-15T09:06:46;98266.91;;;-0.49;96.85
68859;BME280;55864;49.238;8.092;2024-01-15T09:08:47;98266.81;;;-0.48;97.18
68859;BME280;55864;49.238;8.092;2024-01-15T09:10:48;98263.50;;;-0.50;97.56
68859;BME280;55864;49.238;8.092;2024-01-15T09:12:48;98263.91;;;-0.43;97.68
68859;BME280;55864;49.238;8.092;2024-01-15T09:14:49;98255.25;;;-0.30;97.17
68859;BME280;55864;49.238;8.092;2024-01-15T09:16:50;98268.34;;;-0.33;97.44
68859;BME280;55864;49.238;8.092;2024-01-15T09:18:51;98264.22;;;-0.35;98.25
68859;BME280;55864;49.238;8.092;2024-01-15T09:20:51;98270.72;;;-0.42;98.51
68859;BME280;55864;49.238;8.092;2024-01-15T09:22:53;98271.13;;;-0.48;99.03
68859;BME280;55864;49.238;8.092;2024-01-15T09:24:54;98265.75;;;-0.45;100.00
68859;BME280;55864;49.238;8.092;2024-01-15T09:26:54;98274.22;;;-0.43;99.51
68859;BME280;55864;49.238;8.092;2024-01-15T09:28:55;98267.03;;;-0.38;99.12
68859;BME280;55864;49.238;8.092;2024-01-15T09:30:56;98267.75;;;-0.36;98.97
68859;BME280;55864;49.238;8.092;2024-01-15T09:32:56;98269.88;;;-0.30;98.70
68859;BME280;55864;49.238;8.092;2024-01-15T09:34:57;98261.34;;;-0.31;99.05
68859;BME280;55864;49.238;8.092;2024-01-15T09:36:58;98248.97;;;-0.38;99.77
68859;BME280;55864;49.238;8.092;2024-01-15T09:39:00;98255.44;;;-0.45;100.00
68859;BME280;55864;49.238;8.092;2024-01-15T09:41:00;98253.19;;;-0.37;99.26
68859;BME280;55864;49.238;8.092;2024-01-15T09:43:02;98247.81;;;-0.47;99.84
68859;BME280;55864;49.238;8.092;2024-01-15T09:45:03;98254.84;;;-0.49;100.00
68859;BME280;55864;49.238;8.092;2024-01-15T09:47:04;98243.19;;;-0.67;100.00
68859;BME280;55864;49.238;8.092;2024-01-15T09:49:06;98257.22;;;-0.46;100.00
68859;BME280;55864;49.238;8.092;2024-01-15T09:51:06;98254.03;;;-0.49;100.00
68859;BME280;55864;49.238;8.092;2024-01-15T09:53:08;98244.44;;;-0.72;100.00
68859;BME280;55864;49.238;8.092;2024-01-15T09:55:11;98248.75;;;-0.48;100.00
68859;BME280;55864;49.238;8.092;2024-01-15T09:57:12;98247.81;;;-0.47;100.00
68859;BME280;55864;49.238;8.092;2024-01-15T09:59:14;98248.41;;;-0.18;100.00
68859;BME280;55864;49.238;8.092;2024-01-15T10:01:17;98250.06;;;-0.05;99.01
68859;BME280;55864;49.238;8.092;2024-01-15T10:03:17;98251.91;;;-0.07;99.22
68859;BME280;55864;49.238;8.092;2024-01-15T10:05:18;98242.03;;;-0.25;99.98
68859;BME280;55864;49.238;8.092;2024-01-15T10:07:19;98238.72;;;-0.40;100.00
68859;BME280;55864;49.238;8.092;2024-01-15T10:09:20;98247.78;;;-0.09;100.00
68859;BME280;55864;49.238;8.092;2024-01-15T10:11:22;98241.81;;;-0.22;100.00
68859;BME280;55864;49.238;8.092;2024-01-15T10:13:22;98236.13;;;-0.15;100.00
68859;BME280;55864;49.238;8.092;2024-01-15T10:15:23;98229.09;;;-0.13;100.00
68859;BME280;55864;49.238;8.092;2024-01-15T10:17:24;98228.50;;;-0.16;99.78
68859;BME280;55864;49.238;8.092;2024-01-15T10:19:25;98229.16;;;0.11;98.83
68859;BME280;55864;49.238;8.092;2024-01-15T10:21:25;98223.84;;;-0.11;99.82
68859;BME280;55864;49.238;8.092;2024-01-15T10:23:26;98223.03;;;-0.12;100.00
68859;BME280;55864;49.238;8.092;2024-01-15T10:25:26;98232.53;;;-0.12;99.90
68859;BME280;55864;49.238;8.092;2024-01-15T10:27:28;98225.63;;;-0.24;100.00
68859;BME280;55864;49.238;8.092;2024-01-15T10:29:29;98227.66;;;-0.17;100.00
68859;BME280;55864;49.238;8.092;2024-01-15T10:31:30;98222.19;;;-0.12;100.00
68859;BME280;55864;49.238;8.092;2024-01-15T10:33:31;98212.59;;;-0.10;99.86
68859;BME280;55864;49.238;8.092;2024-01-15T10:35:33;98216.09;;;0.02;100.00
68859;BME280;55864;49.238;8.092;2024-01-15T10:37:34;98217.84;;;0.01;99.83
68859;BME280;55864;49.238;8.092;2024-01-15T10:39:35;98214.28;;;0.15;99.41
68859;BME280;55864;49.238;8.092;2024-01-15T10:41:35;98211.28;;;0.08;100.00